Time;durP1;ratioP1;P1;durP2;ratioP2;P2;SDS_P1;SDS_P2;PMS_P1;PMS_P2;Temp;Humidity;BMP_temperature;BMP_pressure;BME280_temperature;BME280_humidity;BME280_pressure;Samples;Min_cycle;Max_cycle;Signal;HPM_P1;HPM_P2
2022/06/09 00:00:59;;;;;;;6.40;3.47;;;;;;;;;;5174257;27;20222;-17
2022/06/09 00:03:28;;;;;;;6.53;4.03;;;;;;;;;;5174896;27;20226;-17
2022/06/09 00:05:56;;;;;;;6.93;3.55;;;;;;;;;;5175058;27;20226;-17
2022/06/09 00:08:24;;;;;;;5.65;3.08;;;;;;;;;;5171888;27;20229;-17
2022/06/09 00:10:53;;;;;;;14.30;4.28;;;;;;;;;;5174951;27;20225;-17
2022/06/09 00:13:20;;;;;;;8.30;3.60;;;;;;;;;;5174681;27;20252;-17
2022/06/09 00:15:48;;;;;;;4.80;3.03;;;;;;;;;;5172656;27;20230;-16
2022/06/09 00:18:15;;;;;;;6.97;3.38;;;;;;;;;;5173854;27;21010;-16
2022/06/09 00:20:43;;;;;;;6.05;3.17;;;;;;;;;;5174800;27;20241;-17
2022/06/09 00:23:13;;;;;;;6.40;3.33;;;;;;;;;;5174378;27;20238;-17
2022/06/09 00:25:40;;;;;;;6.38;3.53;;;;;;;;;;5174515;27;20720;-17
2022/06/09 00:28:08;;;;;;;8.43;3.38;;;;;;;;;;5174068;27;20229;-17
2022/06/09 00:30:35;;;;;;;5.10;3.00;;;;;;;;;;5167159;27;20264;-17
2022/06/09 00:33:02;;;;;;;7.30;4.28;;;;;;;;;;5169866;27;20676;-17
2022/06/09 00:35:30;;;;;;;6.93;3.50;;;;;;;;;;5174083;27;20230;-17
2022/06/09 00:37:58;;;;;;;7.25;3.17;;;;;;;;;;5174154;27;20233;-17
2022/06/09 00:40:27;;;;;;;9.43;3.38;;;;;;;;;;5173761;27;20233;-16
2022/06/09 00:42:54;;;;;;;6.70;2.95;;;;;;;;;;5174256;27;20230;-17
2022/06/09 00:45:23;;;;;;;4.88;3.08;;;;;;;;;;5174665;27;20233;-17
2022/06/09 00:47:50;;;;;;;4.88;3.08;;;;;;;;;;5173872;27;20254;-17
2022/06/09 00:50:18;;;;;;;7.05;3.53;;;;;;;;;;5172918;27;20245;-17
2022/06/09 00:52:46;;;;;;;7.22;3.42;;;;;;;;;;5173610;27;20230;-17
2022/06/09 00:55:15;;;;;;;9.38;3.10;;;;;;;;;;5174110;27;20230;-17
2022/06/09 00:57:45;;;;;;;3.70;2.42;;;;;;;;;;5173879;27;20230;-17
2022/06/09 01:00:13;;;;;;;4.75;2.63;;;;;;;;;;5174248;27;20237;-17
2022/06/09 01:02:40;;;;;;;7.47;2.88;;;;;;;;;;5165118;27;20232;-17
2022/06/09 01:05:09;;;;;;;5.90;3.00;;;;;;;;;;5173999;27;20222;-17
2022/06/09 01:07:37;;;;;;;7.78;3.83;;;;;;;;;;5174280;27;20222;-16
2022/06/09 01:10:04;;;;;;;4.47;2.67;;;;;;;;;;5173673;27;21003;-17
2022/06/09 01:12:32;;;;;;;8.00;3.22;;;;;;;;;;5173829;27;20230;-17
2022/06/09 01:15:03;;;;;;;7.45;2.97;;;;;;;;;;5173484;27;20232;-17
2022/06/09 01:17:34;;;;;;;5.25;2.55;;;;;;;;;;5165966;27;20226;-17
2022/06/09 01:20:14;;;;;;;6.53;2.90;;;;;;;;;;5169048;27;20234;-17
2022/06/09 01:22:53;;;;;;;7.50;3.33;;;;;;;;;;5170632;27;20230;-17
2022/06/09 01:25:45;;;;;;;5.45;3.00;;;;;;;;;;5172057;27;20887;-17
2022/06/09 01:28:19;;;;;;;5.57;3.03;;;;;;;;;;5169087;27;20230;-17
2022/06/09 01:30:49;;;;;;;8.13;2.85;;;;;;;;;;5169493;27;20313;-17
2022/06/09 01:33:19;;;;;;;11.50;2.92;;;;;;;;;;5173190;27;20226;-17
2022/06/09 01:35:48;;;;;;;6.75;2.83;;;;;;;;;;5173678;27;20225;-17
2022/06/09 01:38:15;;;;;;;7.43;2.72;;;;;;;;;;5172507;27;20241;-17
2022/06/09 01:40:43;;;;;;;5.63;2.72;;;;;;;;;;5173354;27;20234;-17
2022/06/09 01:43:11;;;;;;;4.20;2.50;;;;;;;;;;5172939;27;20226;-17
2022/06/09 01:45:41;;;;;;;6.28;2.47;;;;;;;;;;5172906;27;20248;-17
2022/06/09 01:48:10;;;;;;;6.05;2.78;;;;;;;;;;5172848;27;20230;-17
2022/06/09 01:50:38;;;;;;;4.90;2.60;;;;;;;;;;5173036;27;20233;-17
2022/06/09 01:53:06;;;;;;;8.40;2.60;;;;;;;;;;5173429;27;20237;-17
2022/06/09 01:55:35;;;;;;;6.00;3.42;;;;;;;;;;5173146;27;20226;-16
2022/06/09 01:58:02;;;;;;;5.20;2.55;;;;;;;;;;5172767;27;20708;-16
2022/06/09 02:00:30;;;;;;;7.97;2.80;;;;;;;;;;5171344;27;20238;-17
2022/06/09 02:02:58;;;;;;;5.00;2.42;;;;;;;;;;5172879;27;20230;-17
2022/06/09 02:05:28;;;;;;;6.38;2.88;;;;;;;;;;5173086;27;20321;-17
2022/06/09 02:07:56;;;;;;;7.15;2.78;;;;;;;;;;5172949;27;20236;-17
2022/06/09 02:10:31;;;;;;;6.53;3.00;;;;;;;;;;5172468;27;20225;-16
2022/06/09 02:13:00;;;;;;;4.70;2.10;;;;;;;;;;5173002;27;20267;-17
2022/06/09 02:15:29;;;;;;;5.20;2.53;;;;;;;;;;5173148;27;20222;-17
2022/06/09 02:17:57;;;;;;;5.70;2.42;;;;;;;;;;5172509;27;20221;-17
2022/06/09 02:20:24;;;;;;;8.18;2.65;;;;;;;;;;5172766;27;20225;-16
2022/06/09 02:22:53;;;;;;;4.18;2.13;;;;;;;;;;5172321;27;20288;-17
2022/06/09 02:25:20;;;;;;;6.35;2.50;;;;;;;;;;5173429;27;20218;-17
2022/06/09 02:27:48;;;;;;;5.40;2.42;;;;;;;;;;5172261;27;20240;-17
2022/06/09 02:30:15;;;;;;;5.97;2.50;;;;;;;;;;5171295;27;20225;-18
2022/06/09 02:33:02;;;;;;;8.43;2.83;;;;;;;;;;5157307;27;20705;-17
2022/06/09 02:35:30;;;;;;;3.47;2.30;;;;;;;;;;5169941;27;20341;-16
2022/06/09 02:38:00;;;;;;;4.25;2.20;;;;;;;;;;5165171;27;20226;-17
2022/06/09 02:40:27;;;;;;;7.25;2.30;;;;;;;;;;5170108;27;20258;-17
2022/06/09 02:42:54;;;;;;;7.35;2.42;;;;;;;;;;5170093;27;20226;-17
2022/06/09 02:45:22;;;;;;;5.03;2.30;;;;;;;;;;5170145;27;20228;-17
2022/06/09 02:47:49;;;;;;;4.53;2.13;;;;;;;;;;5171620;27;20222;-17
2022/06/09 02:50:17;;;;;;;5.97;2.00;;;;;;;;;;5172126;27;20222;-17
2022/06/09 02:52:44;;;;;;;5.55;2.15;;;;;;;;;;5168368;27;20226;-17
2022/06/09 02:55:13;;;;;;;5.95;2.28;;;;;;;;;;5171773;27;20339;-16
2022/06/09 02:57:41;;;;;;;6.22;2.15;;;;;;;;;;5172133;27;20223;-16
2022/06/09 03:00:09;;;;;;;5.40;2.53;;;;;;;;;;5172473;27;20797;-17
2022/06/09 03:02:38;;;;;;;3.90;1.80;;;;;;;;;;5172023;27;20230;-17
2022/06/09 03:05:06;;;;;;;3.85;2.13;;;;;;;;;;5172568;27;20226;-17
2022/06/09 03:07:33;;;;;;;6.00;2.10;;;;;;;;;;5171907;27;20244;-17
2022/06/09 03:10:01;;;;;;;6.78;2.28;;;;;;;;;;5172007;27;20226;-16
2022/06/09 03:12:29;;;;;;;7.18;2.40;;;;;;;;;;5172212;27;20230;-16
2022/06/09 03:14:57;;;;;;;6.20;2.10;;;;;;;;;;5174914;27;20233;-17
2022/06/09 03:17:25;;;;;;;4.40;1.85;;;;;;;;;;5171408;27;20231;-17
2022/06/09 03:19:52;;;;;;;5.15;1.92;;;;;;;;;;5176002;27;20233;-17
2022/06/09 03:22:19;;;;;;;5.18;2.20;;;;;;;;;;5175044;27;20885;-17
2022/06/09 03:24:47;;;;;;;6.10;2.03;;;;;;;;;;5175730;27;20223;-17
2022/06/09 03:27:14;;;;;;;4.93;2.30;;;;;;;;;;5175530;27;20245;-17
2022/06/09 03:29:43;;;;;;;5.93;2.40;;;;;;;;;;5174239;27;20614;-17
2022/06/09 03:32:10;;;;;;;6.65;2.10;;;;;;;;;;5175045;27;20226;-17
2022/06/09 03:34:38;;;;;;;6.53;1.83;;;;;;;;;;5175279;27;20234;-16
2022/06/09 03:37:05;;;;;;;6.32;1.90;;;;;;;;;;5175218;27;20234;-16
2022/06/09 03:39:33;;;;;;;5.38;2.70;;;;;;;;;;5174848;27;20234;-16
2022/06/09 03:42:00;;;;;;;5.20;2.08;;;;;;;;;;5175723;27;20226;-16
2022/06/09 03:44:27;;;;;;;6.35;2.47;;;;;;;;;;5175304;27;20268;-17
2022/06/09 03:46:56;;;;;;;5.70;1.88;;;;;;;;;;5165271;27;20261;-17
2022/06/09 03:49:24;;;;;;;5.80;2.20;;;;;;;;;;5175200;27;20226;-17
2022/06/09 03:51:51;;;;;;;7.13;2.38;;;;;;;;;;5172611;27;20719;-17
2022/06/09 03:54:18;;;;;;;7.93;2.45;;;;;;;;;;5174851;27;20256;-17
2022/06/09 03:56:46;;;;;;;5.38;2.20;;;;;;;;;;5175366;27;20233;-17
2022/06/09 03:59:13;;;;;;;5.53;2.35;;;;;;;;;;5175243;27;20230;-17
2022/06/09 04:01:40;;;;;;;6.13;2.20;;;;;;;;;;5173185;27;20260;-17
2022/06/09 04:04:09;;;;;;;5.38;2.03;;;;;;;;;;5174813;27;20233;-17
2022/06/09 04:06:37;;;;;;;4.90;2.25;;;;;;;;;;5175163;27;20235;-17
2022/06/09 04:09:05;;;;;;;7.45;2.10;;;;;;;;;;5174980;27;20359;-16
2022/06/09 04:11:33;;;;;;;6.03;2.00;;;;;;;;;;5174790;27;20738;-17
2022/06/09 04:14:00;;;;;;;7.63;2.60;;;;;;;;;;5174395;27;20260;-17
2022/06/09 04:16:28;;;;;;;5.68;1.80;;;;;;;;;;5165165;27;20223;-17
2022/06/09 04:18:56;;;;;;;6.95;2.40;;;;;;;;;;5174829;27;20223;-17
2022/06/09 04:21:25;;;;;;;7.72;2.60;;;;;;;;;;5173988;27;20242;-17
2022/06/09 04:23:52;;;;;;;7.90;2.47;;;;;;;;;;5164337;27;20684;-16
2022/06/09 04:26:20;;;;;;;6.13;2.50;;;;;;;;;;5173399;27;20329;-17
2022/06/09 04:28:48;;;;;;;6.82;2.40;;;;;;;;;;5169471;27;20234;-16
2022/06/09 04:31:15;;;;;;;7.30;2.60;;;;;;;;;;5174214;27;20222;-17
2022/06/09 04:33:43;;;;;;;9.98;3.00;;;;;;;;;;5174471;27;20236;-17
2022/06/09 04:36:10;;;;;;;5.05;1.90;;;;;;;;;;5173661;27;20642;-17
2022/06/09 04:38:39;;;;;;;9.65;2.22;;;;;;;;;;5173809;27;20222;-17
2022/06/09 04:41:09;;;;;;;7.43;2.22;;;;;;;;;;5174074;27;20619;-17
2022/06/09 04:43:37;;;;;;;6.07;2.50;;;;;;;;;;5173928;27;20232;-17
2022/06/09 04:46:05;;;;;;;6.00;2.20;;;;;;;;;;5173717;27;20668;-17
2022/06/09 04:48:32;;;;;;;6.50;2.50;;;;;;;;;;5173596;27;20230;-17
2022/06/09 04:50:59;;;;;;;9.80;2.30;;;;;;;;;;5173869;27;20732;-17
2022/06/09 04:53:27;;;;;;;6.78;2.70;;;;;;;;;;5173769;27;20696;-17
2022/06/09 04:55:56;;;;;;;8.38;2.35;;;;;;;;;;5173481;27;20236;-17
2022/06/09 04:58:24;;;;;;;8.30;2.58;;;;;;;;;;5173274;27;20225;-16
2022/06/09 05:00:51;;;;;;;9.68;2.75;;;;;;;;;;5167454;27;20598;-16
2022/06/09 05:03:20;;;;;;;9.70;2.50;;;;;;;;;;5173714;27;21014;-17
2022/06/09 05:05:47;;;;;;;6.32;2.50;;;;;;;;;;5167920;27;20230;-17
2022/06/09 05:08:15;;;;;;;5.80;2.42;;;;;;;;;;5172782;27;21039;-17
2022/06/09 05:10:43;;;;;;;6.28;2.22;;;;;;;;;;5166086;27;20226;-17
2022/06/09 05:13:11;;;;;;;7.32;2.30;;;;;;;;;;5168480;27;21050;-17
2022/06/09 05:15:40;;;;;;;5.32;2.10;;;;;;;;;;5171061;27;20229;-17
2022/06/09 05:18:07;;;;;;;8.50;2.53;;;;;;;;;;5172547;27;20236;-16
2022/06/09 05:20:35;;;;;;;5.35;1.90;;;;;;;;;;5158999;27;21069;-17
2022/06/09 05:23:02;;;;;;;7.15;2.33;;;;;;;;;;5163607;27;20242;-17
2022/06/09 05:25:30;;;;;;;5.60;2.38;;;;;;;;;;5163629;27;20230;-17
2022/06/09 05:27:59;;;;;;;8.15;2.38;;;;;;;;;;5164850;27;20378;-16
2022/06/09 05:30:28;;;;;;;7.47;1.83;;;;;;;;;;5170116;27;20766;-17
2022/06/09 05:32:55;;;;;;;5.10;2.20;;;;;;;;;;5171876;27;20234;-17
2022/06/09 05:35:22;;;;;;;5.20;2.03;;;;;;;;;;5169837;27;21152;-17
2022/06/09 05:46:06;;;;;;;6.80;2.13;;;;;;;;;;5173034;27;20305;-17
2022/06/09 05:48:34;;;;;;;4.32;1.85;;;;;;;;;;5172489;27;20238;-17
2022/06/09 05:51:01;;;;;;;10.52;1.75;;;;;;;;;;5172934;27;20226;-16
2022/06/09 05:53:29;;;;;;;7.85;1.90;;;;;;;;;;5172276;27;20237;-17
2022/06/09 05:55:57;;;;;;;7.32;2.10;;;;;;;;;;5173017;27;20233;-17
2022/06/09 05:58:25;;;;;;;5.10;1.80;;;;;;;;;;5172795;27;20222;-16
2022/06/09 06:00:52;;;;;;;9.65;2.13;;;;;;;;;;5171350;27;20234;-17
2022/06/09 06:03:21;;;;;;;10.48;1.88;;;;;;;;;;5171655;27;20230;-17
2022/06/09 06:08:33;;;;;;;7.25;1.75;;;;;;;;;;5172950;27;20312;-16
2022/06/09 06:11:01;;;;;;;3.15;1.73;;;;;;;;;;5172985;27;20237;-17
2022/06/09 06:13:28;;;;;;;4.45;1.55;;;;;;;;;;5172537;27;20230;-17
2022/06/09 06:15:55;;;;;;;7.93;1.50;;;;;;;;;;5173143;27;20253;-17
2022/06/09 06:18:31;;;;;;;6.07;1.70;;;;;;;;;;5167176;27;20671;-17
2022/06/09 06:20:59;;;;;;;5.10;1.45;;;;;;;;;;5167098;27;20303;-17
2022/06/09 06:23:26;;;;;;;7.40;1.70;;;;;;;;;;5150933;27;20326;-17
2022/06/09 06:25:53;;;;;;;5.80;1.80;;;;;;;;;;5171209;27;20763;-17
2022/06/09 06:28:21;;;;;;;4.43;1.50;;;;;;;;;;5168655;27;20256;-16
2022/06/09 06:30:54;;;;;;;7.07;1.80;;;;;;;;;;5160406;27;20305;-17
2022/06/09 06:33:22;;;;;;;9.13;1.58;;;;;;;;;;5161273;27;20233;-17
2022/06/09 06:35:51;;;;;;;5.18;1.48;;;;;;;;;;5162221;27;20227;-17
2022/06/09 06:38:19;;;;;;;4.63;1.70;;;;;;;;;;5168307;27;20928;-18
2022/06/09 06:40:46;;;;;;;6.80;1.85;;;;;;;;;;5168216;27;20705;-17
2022/06/09 06:43:13;;;;;;;5.40;1.40;;;;;;;;;;5167299;27;20227;-17
2022/06/09 06:45:41;;;;;;;5.95;1.60;;;;;;;;;;5167749;27;20313;-17
2022/06/09 06:48:09;;;;;;;3.17;1.25;;;;;;;;;;5164478;27;20234;-17
2022/06/09 06:50:36;;;;;;;5.30;1.50;;;;;;;;;;5164800;27;20229;-17
2022/06/09 06:53:06;;;;;;;5.70;1.55;;;;;;;;;;5170078;27;20701;-17
2022/06/09 06:55:34;;;;;;;6.32;1.83;;;;;;;;;;5165670;27;21054;-17
2022/06/09 06:58:02;;;;;;;14.25;1.90;;;;;;;;;;5173759;27;20432;-17
2022/06/09 07:00:29;;;;;;;10.60;1.40;;;;;;;;;;5170873;27;20226;-17
2022/06/09 07:02:57;;;;;;;12.57;1.58;;;;;;;;;;5171109;27;20795;-17
2022/06/09 07:05:57;;;;;;;15.27;1.55;;;;;;;;;;5169035;27;20906;-17
2022/06/09 07:08:26;;;;;;;7.00;1.50;;;;;;;;;;5172799;27;20230;-17
2022/06/09 07:10:53;;;;;;;7.40;1.38;;;;;;;;;;5173329;27;21000;-17
2022/06/09 07:13:21;;;;;;;6.45;1.30;;;;;;;;;;5172491;27;20222;-16
2022/06/09 07:15:49;;;;;;;8.13;1.50;;;;;;;;;;5172301;27;20283;-17
2022/06/09 07:18:16;;;;;;;7.65;1.35;;;;;;;;;;5174860;27;21066;-17
2022/06/09 07:20:44;;;;;;;6.28;0.98;;;;;;;;;;5171257;27;20249;-17
2022/06/09 07:23:11;;;;;;;7.53;1.42;;;;;;;;;;5171250;27;20241;-17
2022/06/09 07:25:40;;;;;;;7.25;1.45;;;;;;;;;;5171652;27;20229;-16
2022/06/09 07:28:07;;;;;;;6.50;1.08;;;;;;;;;;5168651;27;20237;-17
2022/06/09 07:30:35;;;;;;;3.17;1.25;;;;;;;;;;5166875;27;20918;-17
2022/06/09 07:33:02;;;;;;;5.20;1.23;;;;;;;;;;5164331;27;20241;-17
2022/06/09 07:35:31;;;;;;;3.88;1.42;;;;;;;;;;5170763;27;20234;-17
2022/06/09 07:37:58;;;;;;;7.20;1.30;;;;;;;;;;5172113;27;20222;-17
2022/06/09 07:40:26;;;;;;;6.07;1.02;;;;;;;;;;5169571;27;20238;-17
2022/06/09 07:42:54;;;;;;;7.00;1.35;;;;;;;;;;5167154;27;20234;-17
2022/06/09 07:45:23;;;;;;;3.78;1.30;;;;;;;;;;5164787;27;20234;-16
2022/06/09 07:47:51;;;;;;;5.68;1.38;;;;;;;;;;5161446;27;20690;-17
2022/06/09 07:50:18;;;;;;;7.78;1.15;;;;;;;;;;5161704;27;20726;-17
2022/06/09 07:52:45;;;;;;;4.32;1.30;;;;;;;;;;5162288;27;20242;-17
2022/06/09 07:55:13;;;;;;;4.10;1.17;;;;;;;;;;5155957;27;20226;-16
2022/06/09 07:57:40;;;;;;;4.22;1.40;;;;;;;;;;5153768;27;20230;-17
2022/06/09 08:00:10;;;;;;;5.15;1.20;;;;;;;;;;5152700;27;20767;-17
2022/06/09 08:02:37;;;;;;;5.18;0.98;;;;;;;;;;5156650;27;20234;-16
2022/06/09 08:05:06;;;;;;;5.20;1.30;;;;;;;;;;5161237;27;20591;-16
2022/06/09 08:07:33;;;;;;;5.35;1.33;;;;;;;;;;5164656;27;20240;-16
2022/06/09 08:10:00;;;;;;;6.80;1.50;;;;;;;;;;5161676;27;20227;-16
2022/06/09 08:12:28;;;;;;;3.90;1.60;;;;;;;;;;5160244;27;20226;-17
2022/06/09 08:14:55;;;;;;;2.35;0.93;;;;;;;;;;5158966;27;20940;-17
2022/06/09 08:17:24;;;;;;;4.85;1.33;;;;;;;;;;5160673;27;20227;-17
2022/06/09 08:19:51;;;;;;;3.53;1.05;;;;;;;;;;5160585;27;20246;-17
2022/06/09 08:22:19;;;;;;;4.40;1.27;;;;;;;;;;5163393;27;20261;-17
2022/06/09 08:24:47;;;;;;;2.20;1.05;;;;;;;;;;5157557;27;20231;-17
2022/06/09 08:27:14;;;;;;;4.35;1.20;;;;;;;;;;5161592;27;20757;-16
2022/06/09 08:29:42;;;;;;;3.10;1.00;;;;;;;;;;5157748;27;20917;-16
2022/06/09 08:32:09;;;;;;;3.38;1.30;;;;;;;;;;5162977;27;20237;-16
2022/06/09 08:34:38;;;;;;;3.67;1.33;;;;;;;;;;5163817;27;20226;-17
2022/06/09 08:37:05;;;;;;;3.80;1.17;;;;;;;;;;5164850;27;20800;-16
2022/06/09 08:39:33;;;;;;;6.40;1.25;;;;;;;;;;5160695;27;20234;-16
2022/06/09 08:42:04;;;;;;;10.43;1.20;;;;;;;;;;5168324;27;20329;-17
2022/06/09 08:44:34;;;;;;;2.20;1.23;;;;;;;;;;5157571;27;20218;-17
2022/06/09 08:47:03;;;;;;;4.47;1.00;;;;;;;;;;5156587;27;20670;-17
2022/06/09 08:49:33;;;;;;;2.53;1.13;;;;;;;;;;5154426;27;20226;-16
2022/06/09 08:52:03;;;;;;;3.00;1.50;;;;;;;;;;5165081;27;20233;-16
2022/06/09 08:54:31;;;;;;;3.38;1.20;;;;;;;;;;5157666;27;20236;-16
2022/06/09 08:57:01;;;;;;;2.22;1.38;;;;;;;;;;5153018;27;20241;-17
2022/06/09 08:59:29;;;;;;;3.10;1.15;;;;;;;;;;5160123;27;20229;-17
2022/06/09 09:01:58;;;;;;;2.88;1.20;;;;;;;;;;5155425;27;20226;-17
2022/06/09 09:04:27;;;;;;;2.45;1.10;;;;;;;;;;5160437;27;20694;-17
2022/06/09 09:06:56;;;;;;;3.47;1.25;;;;;;;;;;5153970;27;20241;-17
2022/06/09 09:09:26;;;;;;;3.58;1.20;;;;;;;;;;5159568;27;20226;-16
2022/06/09 09:11:56;;;;;;;3.28;1.20;;;;;;;;;;5155269;27;20230;-17
2022/06/09 09:14:25;;;;;;;3.45;1.25;;;;;;;;;;5155149;27;20240;-16
2022/06/09 09:17:02;;;;;;;1.95;1.13;;;;;;;;;;5157175;27;20219;-17
2022/06/09 09:19:34;;;;;;;5.20;1.10;;;;;;;;;;5152301;27;20229;-16
2022/06/09 09:22:04;;;;;;;2.15;1.30;;;;;;;;;;5152465;27;20295;-18
2022/06/09 09:24:34;;;;;;;2.20;1.27;;;;;;;;;;5157463;27;20834;-16
2022/06/09 09:27:04;;;;;;;5.53;1.33;;;;;;;;;;5151342;27;20231;-17
2022/06/09 09:29:32;;;;;;;2.53;1.20;;;;;;;;;;5154509;27;20721;-17
2022/06/09 09:32:00;;;;;;;2.72;1.20;;;;;;;;;;5160166;27;20238;-17
2022/06/09 09:34:30;;;;;;;5.13;1.23;;;;;;;;;;5156832;27;20271;-16
2022/06/09 09:36:58;;;;;;;3.35;1.33;;;;;;;;;;5160727;27;20248;-17
2022/06/09 09:39:30;;;;;;;3.15;1.20;;;;;;;;;;5166357;27;20234;-16
2022/06/09 09:42:09;;;;;;;4.10;1.20;;;;;;;;;;5164936;27;20311;-17
2022/06/09 09:44:36;;;;;;;3.97;1.23;;;;;;;;;;5158188;27;20308;-16
2022/06/09 09:47:04;;;;;;;2.72;0.80;;;;;;;;;;5159917;27;20584;-16
2022/06/09 09:49:32;;;;;;;3.00;1.17;;;;;;;;;;5152750;27;20231;-17
2022/06/09 09:52:00;;;;;;;4.07;1.10;;;;;;;;;;5161070;27;20238;-17
2022/06/09 09:54:29;;;;;;;4.43;1.27;;;;;;;;;;5166298;27;20234;-16
2022/06/09 09:57:03;;;;;;;1.88;1.05;;;;;;;;;;5163423;27;20234;-17
2022/06/09 09:59:31;;;;;;;6.03;1.10;;;;;;;;;;5164779;27;20232;-17
2022/06/09 10:08:44;;;;;;;3.33;1.40;;;;;;;;;;5165751;27;20230;-17
2022/06/09 10:14:01;;;;;;;3.35;1.70;;;;;;;;;;5157940;27;20684;-17
2022/06/09 10:16:49;;;;;;;4.07;1.35;;;;;;;;;;5159184;27;20234;-17
2022/06/09 10:19:34;;;;;;;2.75;1.35;;;;;;;;;;5156864;27;20417;-17
2022/06/09 10:22:02;;;;;;;4.97;1.40;;;;;;;;;;5150686;27;20239;-18
2022/06/09 10:24:48;;;;;;;5.50;1.30;;;;;;;;;;5159265;27;20321;-16
2022/06/09 10:27:16;;;;;;;5.18;1.50;;;;;;;;;;5158082;27;20226;-18
2022/06/09 10:29:46;;;;;;;4.95;1.70;;;;;;;;;;5165007;27;20234;-17
2022/06/09 10:32:16;;;;;;;4.50;1.60;;;;;;;;;;5166913;27;20241;-17
2022/06/09 10:34:44;;;;;;;5.93;1.80;;;;;;;;;;5161736;27;20241;-17
2022/06/09 10:37:14;;;;;;;4.75;1.48;;;;;;;;;;5164167;27;20236;-17
2022/06/09 10:39:43;;;;;;;7.53;1.67;;;;;;;;;;5159064;27;20234;-17
2022/06/09 10:42:15;;;;;;;5.55;1.80;;;;;;;;;;5163154;27;20275;-17
2022/06/09 10:44:44;;;;;;;4.25;1.45;;;;;;;;;;5160373;27;20250;-17
2022/06/09 10:55:32;;;;;;;3.17;1.40;;;;;;;;;;5159663;27;20322;-17
2022/06/09 10:58:03;;;;;;;3.78;1.42;;;;;;;;;;5160956;27;20234;-17
2022/06/09 11:00:31;;;;;;;2.72;1.52;;;;;;;;;;5160143;27;20413;-17
2022/06/09 11:03:01;;;;;;;3.78;1.20;;;;;;;;;;5162762;27;20857;-17
2022/06/09 11:05:32;;;;;;;6.95;1.50;;;;;;;;;;5162183;27;20318;-16
2022/06/09 11:08:00;;;;;;;2.58;1.30;;;;;;;;;;5161939;27;20230;-17
2022/06/09 11:10:29;;;;;;;9.23;1.80;;;;;;;;;;5161946;27;20241;-17
2022/06/09 11:13:01;;;;;;;4.70;1.65;;;;;;;;;;5157552;27;20241;-16
2022/06/09 11:15:31;;;;;;;4.50;1.67;;;;;;;;;;5159988;27;20529;-17
2022/06/09 11:18:07;;;;;;;4.93;1.65;;;;;;;;;;5158081;27;20233;-17
2022/06/09 11:20:37;;;;;;;4.68;1.45;;;;;;;;;;5158649;27;20218;-17
2022/06/09 11:23:07;;;;;;;5.18;1.67;;;;;;;;;;5157522;27;20237;-17
2022/06/09 11:25:50;;;;;;;4.50;1.60;;;;;;;;;;5160005;27;20231;-17
2022/06/09 11:28:32;;;;;;;6.32;1.80;;;;;;;;;;5162265;27;20237;-17
2022/06/09 11:31:07;;;;;;;8.20;1.60;;;;;;;;;;5163548;27;20237;-17
2022/06/09 11:33:41;;;;;;;3.00;1.60;;;;;;;;;;5158110;27;20225;-17
2022/06/09 11:36:10;;;;;;;4.20;1.60;;;;;;;;;;5160751;27;20229;-17
2022/06/09 11:38:41;;;;;;;4.93;1.63;;;;;;;;;;5159815;27;20230;-17
2022/06/09 11:41:12;;;;;;;4.00;1.50;;;;;;;;;;5159398;27;20233;-17
2022/06/09 11:44:02;;;;;;;4.63;1.67;;;;;;;;;;5161507;27;20238;-17
2022/06/09 11:46:31;;;;;;;4.40;1.33;;;;;;;;;;5160597;27;20237;-16
2022/06/09 11:49:00;;;;;;;3.83;1.60;;;;;;;;;;5165542;27;20229;-17
2022/06/09 11:51:28;;;;;;;2.15;1.40;;;;;;;;;;5159938;27;20267;-17
2022/06/09 11:53:56;;;;;;;5.70;1.58;;;;;;;;;;5160691;27;21015;-16
2022/06/09 11:56:34;;;;;;;3.85;1.90;;;;;;;;;;5151213;27;20635;-17
2022/06/09 11:59:02;;;;;;;5.30;1.88;;;;;;;;;;5158567;27;20325;-17
2022/06/09 12:01:33;;;;;;;5.40;1.67;;;;;;;;;;5154182;27;20237;-16
2022/06/09 12:04:25;;;;;;;5.20;1.50;;;;;;;;;;5162944;27;20237;-17
2022/06/09 12:07:00;;;;;;;2.83;1.50;;;;;;;;;;5152512;27;20360;-17
2022/06/09 12:09:30;;;;;;;5.00;1.73;;;;;;;;;;5156961;27;20230;-17
2022/06/09 12:11:58;;;;;;;3.95;1.48;;;;;;;;;;5156243;27;20977;-17
2022/06/09 12:14:27;;;;;;;3.92;1.95;;;;;;;;;;5154121;27;20233;-17
2022/06/09 12:16:56;;;;;;;2.78;1.40;;;;;;;;;;5162474;27;20260;-17
2022/06/09 12:19:24;;;;;;;2.03;1.42;;;;;;;;;;5165849;27;20938;-17
2022/06/09 12:21:52;;;;;;;2.92;1.45;;;;;;;;;;5160543;27;20242;-17
2022/06/09 12:24:23;;;;;;;3.35;1.63;;;;;;;;;;5157424;27;20254;-16
2022/06/09 12:26:55;;;;;;;2.55;1.40;;;;;;;;;;5159303;27;20241;-17
2022/06/09 12:29:23;;;;;;;3.22;1.30;;;;;;;;;;5160237;27;20697;-16
2022/06/09 12:32:09;;;;;;;4.40;1.60;;;;;;;;;;5159631;27;20222;-17
2022/06/09 12:34:37;;;;;;;3.10;1.50;;;;;;;;;;5155529;27;20227;-17
2022/06/09 12:37:04;;;;;;;3.40;1.73;;;;;;;;;;5163270;27;20229;-17
2022/06/09 12:39:35;;;;;;;4.53;1.65;;;;;;;;;;5158203;27;20230;-17
2022/06/09 12:42:03;;;;;;;5.05;1.58;;;;;;;;;;5162787;27;20243;-17
2022/06/09 12:44:31;;;;;;;3.67;1.60;;;;;;;;;;5159576;27;21037;-16
2022/06/09 12:47:00;;;;;;;2.92;1.20;;;;;;;;;;5164586;27;20234;-17
2022/06/09 12:49:27;;;;;;;4.90;1.80;;;;;;;;;;5162379;27;20230;-16
2022/06/09 12:51:55;;;;;;;3.70;1.50;;;;;;;;;;5150174;27;20234;-17
2022/06/09 12:54:23;;;;;;;2.83;1.27;;;;;;;;;;5156399;27;20231;-17
2022/06/09 12:56:58;;;;;;;4.20;1.33;;;;;;;;;;5158875;27;20230;-17
2022/06/09 12:59:26;;;;;;;3.60;1.55;;;;;;;;;;5161503;27;20317;-16
2022/06/09 13:01:55;;;;;;;2.13;1.10;;;;;;;;;;5160180;27;20689;-16
2022/06/09 13:04:26;;;;;;;3.30;1.48;;;;;;;;;;5161131;27;20671;-16
2022/06/09 13:07:01;;;;;;;3.45;1.25;;;;;;;;;;5208379;27;20645;-15
2022/06/09 13:09:29;;;;;;;2.97;1.40;;;;;;;;;;5187527;27;20233;-13
2022/06/09 13:14:42;;;;;;;3.50;1.50;;;;;;;;;;5193021;27;20288;-15
2022/06/09 13:17:13;;;;;;;3.08;1.48;;;;;;;;;;5189091;27;20233;-15
2022/06/09 13:19:40;;;;;;;2.50;1.30;;;;;;;;;;5187432;27;20230;-16
2022/06/09 13:22:09;;;;;;;2.75;1.17;;;;;;;;;;5192149;27;20229;-14
2022/06/09 13:24:37;;;;;;;3.03;1.30;;;;;;;;;;5190154;27;20231;-15
2022/06/09 13:27:08;;;;;;;3.45;1.33;;;;;;;;;;5204937;27;20237;-16
2022/06/09 13:29:36;;;;;;;3.10;1.30;;;;;;;;;;5193472;27;20311;-16
2022/06/09 13:32:11;;;;;;;3.85;1.30;;;;;;;;;;5208626;27;20228;-16
2022/06/09 13:34:42;;;;;;;3.50;1.27;;;;;;;;;;5199121;27;20228;-16
2022/06/09 13:37:12;;;;;;;4.60;1.50;;;;;;;;;;5209207;27;20281;-15
2022/06/09 13:39:44;;;;;;;5.47;1.30;;;;;;;;;;5204576;27;20221;-15
2022/06/09 13:42:17;;;;;;;5.15;1.42;;;;;;;;;;5200578;27;20237;-15
2022/06/09 13:44:46;;;;;;;6.20;1.40;;;;;;;;;;5208320;27;20312;-15
2022/06/09 13:47:15;;;;;;;3.50;1.40;;;;;;;;;;5207122;27;20255;-16
2022/06/09 13:49:43;;;;;;;6.28;1.48;;;;;;;;;;5197828;27;21788;-14
2022/06/09 13:52:24;;;;;;;6.30;1.58;;;;;;;;;;5199758;27;20232;-16
2022/06/09 13:54:52;;;;;;;4.68;1.58;;;;;;;;;;5191955;27;20225;-14
2022/06/09 13:57:21;;;;;;;2.60;1.25;;;;;;;;;;5200122;27;20260;-13
2022/06/09 13:59:48;;;;;;;6.60;1.55;;;;;;;;;;5207969;27;20229;-16
2022/06/09 14:02:16;;;;;;;3.95;1.48;;;;;;;;;;5207746;27;21003;-16
2022/06/09 14:04:44;;;;;;;6.10;1.65;;;;;;;;;;5202501;27;20806;-16
2022/06/09 14:07:12;;;;;;;3.35;1.48;;;;;;;;;;5181995;27;20907;-16
2022/06/09 14:09:40;;;;;;;4.22;1.45;;;;;;;;;;5184511;27;20236;-16
2022/06/09 14:12:08;;;;;;;6.00;1.42;;;;;;;;;;5187366;27;20276;-13
2022/06/09 14:14:40;;;;;;;5.47;1.35;;;;;;;;;;5179752;27;20233;-15
2022/06/09 14:17:07;;;;;;;3.08;1.35;;;;;;;;;;5176000;27;20245;-16
2022/06/09 14:19:35;;;;;;;3.08;1.50;;;;;;;;;;5167555;27;21047;-16
2022/06/09 14:22:02;;;;;;;4.78;1.77;;;;;;;;;;5164957;27;20983;-15
2022/06/09 14:24:30;;;;;;;4.38;1.63;;;;;;;;;;5162109;27;20234;-12
2022/06/09 14:26:59;;;;;;;2.55;1.20;;;;;;;;;;5162119;27;20721;-14
2022/06/09 14:29:28;;;;;;;3.22;1.52;;;;;;;;;;5160416;27;20230;-14
2022/06/09 14:31:55;;;;;;;7.05;1.63;;;;;;;;;;5158834;27;20677;-15
2022/06/09 14:34:22;;;;;;;4.97;1.77;;;;;;;;;;5168212;27;20248;-15
2022/06/09 14:36:51;;;;;;;3.05;1.30;;;;;;;;;;5166903;27;20237;-16
2022/06/09 14:39:19;;;;;;;5.05;1.88;;;;;;;;;;5170687;27;20237;-15
2022/06/09 14:41:47;;;;;;;3.45;1.55;;;;;;;;;;5169123;27;20230;-15
2022/06/09 14:44:15;;;;;;;6.57;1.70;;;;;;;;;;5169742;27;20230;-15
2022/06/09 14:46:44;;;;;;;13.35;1.77;;;;;;;;;;5166924;27;20248;-16
2022/06/09 14:49:13;;;;;;;2.78;1.42;;;;;;;;;;5176383;27;20242;-15
2022/06/09 14:51:40;;;;;;;3.78;1.45;;;;;;;;;;5168343;27;20223;-16
2022/06/09 14:54:08;;;;;;;5.88;1.85;;;;;;;;;;5172224;27;20230;-15
2022/06/09 14:56:36;;;;;;;6.93;1.65;;;;;;;;;;5162521;27;20686;-13
2022/06/09 14:59:03;;;;;;;5.55;1.50;;;;;;;;;;5159975;27;20234;-14
2022/06/09 15:01:32;;;;;;;4.05;1.67;;;;;;;;;;5170151;27;20226;-14
2022/06/09 15:03:59;;;;;;;5.68;1.90;;;;;;;;;;5165654;27;20226;-16
2022/06/09 15:06:27;;;;;;;4.70;1.80;;;;;;;;;;5179414;27;20238;-14
2022/06/09 15:08:55;;;;;;;3.05;1.38;;;;;;;;;;5188734;27;20722;-16
2022/06/09 15:11:22;;;;;;;4.30;1.70;;;;;;;;;;5184682;27;20707;-15
2022/06/09 15:13:49;;;;;;;4.35;1.65;;;;;;;;;;5182827;27;20256;-16
2022/06/09 15:16:29;;;;;;;3.60;1.70;;;;;;;;;;5179597;27;20675;-14
2022/06/09 15:19:07;;;;;;;2.60;1.65;;;;;;;;;;5190245;27;20946;-15
2022/06/09 15:21:35;;;;;;;3.75;1.70;;;;;;;;;;5191973;27;20235;-15
2022/06/09 15:24:03;;;;;;;4.15;1.80;;;;;;;;;;5184632;27;20238;-16
2022/06/09 15:26:30;;;;;;;6.75;1.67;;;;;;;;;;5188979;27;20233;-15